Time;durP1;ratioP1;P1;durP2;ratioP2;P2;SDS_P1;SDS_P2;PMS_P1;PMS_P2;Temp;Humidity;BMP_temperature;BMP_pressure;BME280_temperature;BME280_humidity;BME280_pressure;Samples;Min_cycle;Max_cycle;Signal;HPM_P1;HPM_P2
2022/01/16 00:05:10;;;;;;;1.50;0.80;;;19.30;48.70;;;;;;6197229;28;20042;-71
2022/01/16 00:08:12;;;;;;;1.45;0.90;;;19.30;48.70;;;;;;6197750;28;20120;-71
2022/01/16 00:11:12;;;;;;;2.03;0.90;;;19.30;48.70;;;;;;6197344;28;20466;-71
2022/01/16 00:14:13;;;;;;;2.97;1.08;;;19.30;48.70;;;;;;6196873;28;20537;-70
2022/01/16 00:17:13;;;;;;;1.67;0.85;;;19.30;48.70;;;;;;6196873;28;20321;-71
2022/01/16 00:20:14;;;;;;;1.20;0.63;;;19.30;48.70;;;;;;6197351;28;20034;-70
2022/01/16 00:23:23;;;;;;;1.90;0.82;;;19.30;48.70;;;;;;6197128;28;20034;-71
2022/01/16 00:26:24;;;;;;;2.72;0.90;;;19.30;48.70;;;;;;6196315;28;20050;-71
2022/01/16 00:29:24;;;;;;;1.77;0.75;;;19.30;48.70;;;;;;6197350;28;20064;-71
2022/01/16 00:32:25;;;;;;;2.72;0.98;;;19.30;48.70;;;;;;6196592;28;20026;-71
2022/01/16 00:35:25;;;;;;;2.15;0.85;;;19.30;48.80;;;;;;6196991;28;20030;-70
2022/01/16 00:38:26;;;;;;;2.25;0.98;;;19.30;48.80;;;;;;6196770;28;20037;-71
2022/01/16 00:41:27;;;;;;;2.42;0.90;;;19.30;48.80;;;;;;6195115;28;20310;-71
2022/01/16 00:44:27;;;;;;;1.60;0.85;;;19.30;48.80;;;;;;6196456;28;20114;-71
2022/01/16 00:47:28;;;;;;;2.08;0.95;;;19.30;48.80;;;;;;6196886;28;20101;-71
2022/01/16 00:50:30;;;;;;;1.77;0.70;;;19.30;48.80;;;;;;6196452;28;20093;-71
2022/01/16 00:53:31;;;;;;;1.77;1.08;;;19.30;48.70;;;;;;6196714;28;20029;-71
2022/01/16 00:56:31;;;;;;;2.47;0.77;;;19.30;48.80;;;;;;6196584;28;20493;-71
2022/01/16 00:59:32;;;;;;;1.77;1.13;;;19.20;48.70;;;;;;6197535;28;20085;-71
2022/01/16 01:02:32;;;;;;;3.25;1.13;;;19.30;48.80;;;;;;6195879;28;20033;-71
2022/01/16 01:05:34;;;;;;;1.65;0.82;;;19.20;48.70;;;;;;6196277;28;20031;-71
2022/01/16 01:08:35;;;;;;;2.47;0.90;;;19.20;48.70;;;;;;6195834;28;20078;-71
2022/01/16 01:11:38;;;;;;;2.83;1.00;;;19.20;48.70;;;;;;6195868;28;20370;-71
2022/01/16 01:14:41;;;;;;;1.50;0.80;;;19.20;48.70;;;;;;6195896;28;20275;-71
2022/01/16 01:17:45;;;;;;;3.08;1.10;;;19.20;48.70;;;;;;6195847;28;20500;-71
2022/01/16 01:20:48;;;;;;;2.00;0.77;;;19.20;48.70;;;;;;6196075;28;20381;-70
2022/01/16 01:23:49;;;;;;;1.98;0.77;;;19.20;48.70;;;;;;6195700;28;20036;-71
2022/01/16 01:27:01;;;;;;;1.90;0.90;;;19.20;48.70;;;;;;6210101;28;20026;-71
2022/01/16 01:30:06;;;;;;;1.60;0.80;;;19.20;48.70;;;;;;6195984;28;20037;-70
2022/01/16 01:33:06;;;;;;;2.75;0.90;;;19.20;48.70;;;;;;6195486;28;20023;-71
2022/01/16 01:36:07;;;;;;;1.05;0.68;;;19.20;48.70;;;;;;6195720;28;20389;-71
2022/01/16 01:39:07;;;;;;;2.17;0.80;;;19.20;48.70;;;;;;6195397;28;20022;-71
2022/01/16 01:42:11;;;;;;;1.90;0.85;;;19.20;48.70;;;;;;6195274;28;20081;-70
2022/01/16 01:51:53;;;;;;;1.63;0.80;;;19.20;48.70;;;;;;6191662;28;20030;-70
2022/01/16 01:54:53;;;;;;;2.10;0.80;;;19.20;48.70;;;;;;6171514;28;20573;-71
2022/01/16 01:57:54;;;;;;;1.10;0.80;;;19.20;48.70;;;;;;6171014;28;20030;-71
2022/01/16 02:00:54;;;;;;;1.23;0.70;;;19.20;48.70;;;;;;6171044;28;20393;-70
2022/01/16 02:03:55;;;;;;;1.35;0.70;;;19.20;48.70;;;;;;6170675;28;20101;-71
2022/01/16 02:06:58;;;;;;;1.92;0.70;;;19.20;48.70;;;;;;6170739;28;20259;-71
2022/01/16 02:09:58;;;;;;;1.50;0.80;;;19.20;48.70;;;;;;6170328;28;20069;-71
2022/01/16 02:13:03;;;;;;;2.05;0.90;;;19.20;48.70;;;;;;6170490;28;20031;-71
2022/01/16 02:32:46;;;;;;;1.98;0.85;;;19.20;48.70;;;;;;6194336;28;20121;-71
2022/01/16 02:35:48;;;;;;;2.55;0.90;;;19.20;48.70;;;;;;6169781;28;20027;-71
2022/01/16 02:38:49;;;;;;;1.70;0.60;;;19.20;48.70;;;;;;6170748;28;20037;-71
2022/01/16 02:41:52;;;;;;;1.35;0.77;;;19.20;48.70;;;;;;6170503;28;20030;-71
2022/01/16 02:45:01;;;;;;;1.92;0.90;;;19.20;48.70;;;;;;6170026;28;20034;-71
2022/01/16 02:48:05;;;;;;;1.55;0.80;;;19.20;48.70;;;;;;6169619;28;20034;-71
2022/01/16 02:51:06;;;;;;;1.85;0.93;;;19.20;48.70;;;;;;6170472;28;20031;-71
2022/01/16 02:54:06;;;;;;;2.70;1.00;;;19.20;48.70;;;;;;6170392;28;20481;-71
2022/01/16 02:57:10;;;;;;;1.80;0.80;;;19.20;48.70;;;;;;6177992;28;20018;-71
2022/01/16 03:00:12;;;;;;;1.50;0.80;;;19.20;48.70;;;;;;6193991;28;20053;-71
2022/01/16 03:03:12;;;;;;;1.60;0.73;;;19.20;48.70;;;;;;6193998;28;20038;-71
2022/01/16 03:06:13;;;;;;;1.23;0.68;;;19.20;48.70;;;;;;6193348;28;20061;-71
2022/01/16 03:09:14;;;;;;;1.75;0.90;;;19.20;48.70;;;;;;6194343;28;20065;-70
2022/01/16 03:12:15;;;;;;;1.70;0.60;;;19.20;48.70;;;;;;6192589;28;20062;-70
2022/01/16 03:15:17;;;;;;;2.00;0.77;;;19.20;48.70;;;;;;6193959;28;20037;-71
2022/01/16 03:24:45;;;;;;;1.02;0.70;;;19.20;48.70;;;;;;6193410;28;20515;-71
2022/01/16 03:27:46;;;;;;;1.58;0.73;;;19.20;48.70;;;;;;6193543;28;20034;-71
2022/01/16 03:30:47;;;;;;;2.17;0.82;;;19.20;48.70;;;;;;6193883;28;20027;-71
2022/01/16 03:33:47;;;;;;;2.05;0.70;;;19.20;48.70;;;;;;6193239;28;20022;-70
2022/01/16 03:36:49;;;;;;;2.20;1.00;;;19.20;48.70;;;;;;6193940;28;20055;-70
2022/01/16 03:39:49;;;;;;;1.95;0.80;;;19.20;48.70;;;;;;6192779;28;20058;-70
2022/01/16 03:42:50;;;;;;;1.25;0.85;;;19.20;48.70;;;;;;6193356;28;20027;-71
2022/01/16 03:45:50;;;;;;;1.50;0.70;;;19.20;48.70;;;;;;6193114;28;20034;-71
2022/01/16 03:48:51;;;;;;;2.85;0.90;;;19.20;48.70;;;;;;6193277;28;20080;-70
2022/01/16 03:51:53;;;;;;;2.40;0.90;;;19.20;48.70;;;;;;6195906;28;20022;-70
2022/01/16 03:54:53;;;;;;;3.05;0.95;;;19.20;48.70;;;;;;6198151;28;20548;-71
2022/01/16 03:57:53;;;;;;;2.47;0.90;;;19.20;48.60;;;;;;6197731;28;20030;-71
2022/01/16 04:00:54;;;;;;;1.40;0.70;;;19.10;48.60;;;;;;6197474;28;20389;-71
2022/01/16 04:03:55;;;;;;;2.10;1.13;;;19.20;48.70;;;;;;6198018;28;20081;-70
2022/01/16 04:06:56;;;;;;;2.20;1.02;;;19.10;49.20;;;;;;6197532;28;20124;-71
2022/01/16 04:09:57;;;;;;;1.27;0.70;;;19.10;48.60;;;;;;6197454;28;20474;-71
2022/01/16 04:12:57;;;;;;;2.70;0.73;;;19.20;48.70;;;;;;6198105;28;20026;-71
2022/01/16 04:15:58;;;;;;;1.98;0.75;;;19.10;48.60;;;;;;6197504;28;20101;-71
2022/01/16 04:18:59;;;;;;;2.40;0.70;;;19.10;48.60;;;;;;6197239;28;20061;-71
2022/01/16 04:21:59;;;;;;;1.40;0.80;;;19.20;48.60;;;;;;6197223;28;20100;-71
2022/01/16 04:25:00;;;;;;;1.77;0.88;;;19.10;48.50;;;;;;6196893;28;20042;-71
2022/01/16 04:28:00;;;;;;;2.22;0.90;;;19.20;48.70;;;;;;6197464;28;20154;-71
2022/01/16 04:31:01;;;;;;;2.33;0.95;;;19.10;48.60;;;;;;6197196;28;20034;-71
2022/01/16 04:34:01;;;;;;;1.65;0.80;;;19.10;48.50;;;;;;6194484;28;20026;-71
2022/01/16 04:37:02;;;;;;;2.00;0.85;;;19.10;48.50;;;;;;6197076;28;20034;-71
2022/01/16 04:40:04;;;;;;;1.83;0.80;;;19.10;48.50;;;;;;6196977;28;20045;-70
2022/01/16 04:46:26;;;;;;;2.95;1.10;;;19.10;48.60;;;;;;6196564;28;20019;-70
2022/01/16 04:49:27;;;;;;;2.63;0.80;;;19.10;48.60;;;;;;6196788;28;20034;-71
2022/01/16 04:52:27;;;;;;;2.13;0.90;;;19.10;48.50;;;;;;6195593;28;20061;-70
2022/01/16 04:55:28;;;;;;;2.13;0.98;;;19.10;48.50;;;;;;6196460;28;20019;-71
2022/01/16 04:58:28;;;;;;;2.63;1.05;;;19.10;48.50;;;;;;6196597;28;20022;-71
2022/01/16 05:01:29;;;;;;;3.08;1.02;;;19.20;48.60;;;;;;6196008;28;20054;-71
2022/01/16 05:04:29;;;;;;;2.30;0.73;;;19.10;48.50;;;;;;6195949;28;20123;-70
2022/01/16 05:07:30;;;;;;;2.10;0.90;;;19.10;48.50;;;;;;6195962;28;20054;-71
2022/01/16 05:10:32;;;;;;;1.90;0.80;;;19.10;48.50;;;;;;6195236;28;20054;-71
2022/01/16 05:16:40;;;;;;;1.42;0.75;;;19.20;48.50;;;;;;6196478;28;20046;-71
2022/01/16 05:19:40;;;;;;;2.00;0.90;;;19.10;48.40;;;;;;6196308;28;20100;-71
2022/01/16 05:22:41;;;;;;;2.55;0.90;;;19.20;48.50;;;;;;6195712;28;20022;-71
2022/01/16 05:25:42;;;;;;;2.53;0.90;;;19.20;48.50;;;;;;6193347;28;20111;-71
2022/01/16 05:28:43;;;;;;;2.65;0.90;;;19.20;48.50;;;;;;6195952;28;20485;-70
2022/01/16 05:31:47;;;;;;;2.33;0.73;;;19.20;48.50;;;;;;6195959;28;20042;-71
2022/01/16 05:34:48;;;;;;;1.92;0.90;;;19.20;48.50;;;;;;6195422;28;20110;-70
2022/01/16 05:37:48;;;;;;;2.35;0.80;;;19.20;48.50;;;;;;6195662;28;20022;-71
2022/01/16 05:40:49;;;;;;;1.77;0.93;;;19.20;48.50;;;;;;6195930;28;20041;-71
2022/01/16 05:43:49;;;;;;;2.72;0.73;;;19.20;48.50;;;;;;6195272;28;20077;-71
2022/01/16 05:46:50;;;;;;;2.08;0.95;;;19.20;48.50;;;;;;6194961;28;20101;-71
2022/01/16 05:49:50;;;;;;;2.08;0.90;;;19.20;48.50;;;;;;6195428;28;20073;-71
2022/01/16 05:52:51;;;;;;;2.47;0.90;;;19.20;48.50;;;;;;6194643;28;20105;-71
2022/01/16 05:55:52;;;;;;;1.90;1.00;;;19.20;48.50;;;;;;6195148;28;20033;-71
2022/01/16 05:58:52;;;;;;;2.50;0.73;;;19.20;48.50;;;;;;6195084;28;20037;-71
2022/01/16 06:01:53;;;;;;;3.10;1.45;;;19.20;48.50;;;;;;6184615;28;20031;-71
2022/01/16 06:04:53;;;;;;;1.83;0.85;;;19.20;48.50;;;;;;6170715;28;20498;-71
2022/01/16 06:07:58;;;;;;;2.45;0.90;;;19.20;48.50;;;;;;6170642;28;20050;-71
2022/01/16 06:10:59;;;;;;;1.38;0.73;;;19.20;48.50;;;;;;6170895;28;20466;-71
2022/01/16 06:13:59;;;;;;;2.05;1.00;;;19.20;48.60;;;;;;6170457;28;20034;-71
2022/01/16 06:17:00;;;;;;;2.03;0.68;;;19.20;48.50;;;;;;6171014;28;20031;-71
2022/01/16 06:20:01;;;;;;;2.13;0.77;;;19.20;48.50;;;;;;6170877;28;20114;-71
2022/01/16 06:23:02;;;;;;;2.42;0.98;;;19.20;48.50;;;;;;6170359;28;20117;-71
2022/01/16 06:26:02;;;;;;;1.67;0.82;;;19.20;48.50;;;;;;6188758;28;20034;-71
2022/01/16 06:29:03;;;;;;;1.58;0.90;;;19.20;48.50;;;;;;6194453;28;20030;-71
2022/01/16 06:32:04;;;;;;;2.08;0.65;;;19.20;48.50;;;;;;6194976;28;20031;-71
2022/01/16 06:35:06;;;;;;;2.55;0.90;;;19.20;48.50;;;;;;6193946;28;20038;-71
2022/01/16 06:38:07;;;;;;;1.02;0.60;;;19.20;48.50;;;;;;6194242;28;20109;-71
2022/01/16 06:41:09;;;;;;;1.35;0.73;;;19.20;48.50;;;;;;6194154;28;20509;-71
2022/01/16 06:44:10;;;;;;;3.67;0.90;;;19.20;48.60;;;;;;6193908;28;20472;-71
2022/01/16 06:47:10;;;;;;;1.75;0.85;;;19.20;48.50;;;;;;6193570;28;20058;-71
2022/01/16 06:50:11;;;;;;;1.75;0.90;;;19.20;48.50;;;;;;6194458;28;20113;-71
2022/01/16 06:53:12;;;;;;;1.23;0.73;;;19.20;48.50;;;;;;6193949;28;20030;-71
2022/01/16 06:56:13;;;;;;;1.85;1.02;;;19.20;48.50;;;;;;6194234;28;20034;-71
2022/01/16 06:59:13;;;;;;;2.05;0.93;;;19.20;48.50;;;;;;6193819;28;20516;-71
2022/01/16 07:02:16;;;;;;;1.58;0.80;;;19.20;48.50;;;;;;6193968;28;20088;-71
2022/01/16 07:05:18;;;;;;;1.95;0.80;;;19.20;48.50;;;;;;6193852;28;20089;-71
2022/01/16 07:08:22;;;;;;;1.55;0.70;;;19.20;48.50;;;;;;6193794;28;20497;-71
2022/01/16 07:11:23;;;;;;;1.65;0.82;;;19.20;48.50;;;;;;6193501;28;20448;-71
2022/01/16 07:14:23;;;;;;;1.75;0.88;;;19.20;48.50;;;;;;6193574;28;20031;-71
2022/01/16 07:17:24;;;;;;;1.05;0.68;;;19.20;48.50;;;;;;6194218;28;20026;-71
2022/01/16 07:20:24;;;;;;;2.88;1.00;;;19.20;48.50;;;;;;6193782;28;20023;-71
2022/01/16 07:23:26;;;;;;;2.70;1.20;;;19.20;48.50;;;;;;6193568;28;20577;-71
2022/01/16 07:26:26;;;;;;;1.35;0.80;;;19.20;48.50;;;;;;6195828;28;20030;-71
2022/01/16 07:29:30;;;;;;;2.20;1.17;;;19.20;48.50;;;;;;6198458;28;20038;-71
2022/01/16 07:32:30;;;;;;;1.90;0.82;;;19.20;48.50;;;;;;6197982;28;20026;-71
2022/01/16 07:35:32;;;;;;;1.25;0.60;;;19.20;48.50;;;;;;6198261;28;20018;-71
2022/01/16 07:38:32;;;;;;;3.50;1.20;;;19.20;48.40;;;;;;6198355;28;20115;-71
2022/01/16 07:41:33;;;;;;;2.90;0.93;;;19.20;48.50;;;;;;6196829;28;20505;-71
2022/01/16 07:44:33;;;;;;;2.42;1.20;;;19.20;48.40;;;;;;6197969;28;20100;-70
2022/01/16 07:47:34;;;;;;;2.17;0.80;;;19.20;48.50;;;;;;6198227;28;20058;-71
2022/01/16 07:50:37;;;;;;;2.10;0.80;;;19.20;48.50;;;;;;6198430;28;20026;-71
2022/01/16 07:53:37;;;;;;;2.05;0.75;;;19.20;48.50;;;;;;6183305;28;20127;-71
2022/01/16 07:56:37;;;;;;;1.70;0.82;;;19.20;48.40;;;;;;6173856;28;20186;-71
2022/01/16 07:59:38;;;;;;;1.17;0.82;;;19.20;48.40;;;;;;6173787;28;20027;-70
2022/01/16 08:02:39;;;;;;;1.33;0.82;;;19.20;48.40;;;;;;6173284;28;20093;-71
2022/01/16 08:05:39;;;;;;;2.28;1.13;;;19.20;48.50;;;;;;6173377;28;20066;-70
2022/01/16 08:08:40;;;;;;;1.50;0.90;;;19.20;48.40;;;;;;6173116;28;20051;-71
2022/01/16 08:11:40;;;;;;;1.70;0.90;;;19.20;48.40;;;;;;6173423;28;20030;-71
2022/01/16 08:14:41;;;;;;;2.08;1.17;;;19.20;48.40;;;;;;6173411;28;20394;-71
2022/01/16 08:17:41;;;;;;;1.40;0.90;;;19.20;48.40;;;;;;6173428;28;20101;-71
2022/01/16 08:20:42;;;;;;;1.73;0.95;;;19.20;48.40;;;;;;6172931;28;20030;-71
2022/01/16 08:23:43;;;;;;;2.15;1.00;;;19.20;48.40;;;;;;6173160;28;20047;-71
2022/01/16 08:26:44;;;;;;;1.60;0.80;;;19.20;48.40;;;;;;6194702;28;20042;-71
2022/01/16 08:29:44;;;;;;;1.50;0.80;;;19.20;49.10;;;;;;6197045;28;20033;-71
2022/01/16 08:32:45;;;;;;;1.75;0.98;;;19.20;48.40;;;;;;6197454;28;20045;-71
2022/01/16 08:35:45;;;;;;;1.70;0.73;;;19.20;48.40;;;;;;6196953;28;20042;-70
2022/01/16 08:38:46;;;;;;;2.97;1.23;;;19.20;48.40;;;;;;6197010;28;20031;-71
2022/01/16 08:41:46;;;;;;;2.22;0.90;;;19.20;48.30;;;;;;6196861;28;20033;-71
2022/01/16 08:44:49;;;;;;;1.88;0.85;;;19.20;48.40;;;;;;6197354;28;20038;-71
2022/01/16 08:47:49;;;;;;;1.33;0.98;;;19.20;48.40;;;;;;6196346;28;20030;-71
2022/01/16 08:50:50;;;;;;;1.60;0.98;;;19.20;48.40;;;;;;6198556;28;20054;-71
2022/01/16 08:53:50;;;;;;;2.30;1.10;;;19.20;48.40;;;;;;6196724;28;20026;-71
2022/01/16 08:56:51;;;;;;;1.38;0.90;;;19.20;48.40;;;;;;6195428;28;20031;-71
2022/01/16 08:59:51;;;;;;;1.58;0.85;;;19.20;48.30;;;;;;6196920;28;20093;-70
2022/01/16 09:02:52;;;;;;;1.88;0.90;;;19.20;48.40;;;;;;6196211;28;20057;-71
2022/01/16 09:05:54;;;;;;;1.33;0.77;;;19.20;48.40;;;;;;6196513;28;20354;-71
2022/01/16 09:08:55;;;;;;;1.98;1.00;;;19.20;48.40;;;;;;6195838;28;20105;-70
2022/01/16 09:11:55;;;;;;;1.63;1.17;;;19.20;48.40;;;;;;6196557;28;20026;-71
2022/01/16 09:14:57;;;;;;;1.13;0.70;;;19.30;48.50;;;;;;6196204;28;20040;-71
2022/01/16 09:17:57;;;;;;;1.52;0.80;;;19.20;48.30;;;;;;6196480;28;20393;-71
2022/01/16 09:21:00;;;;;;;1.40;0.77;;;19.20;48.40;;;;;;6195077;28;20038;-71
2022/01/16 09:24:00;;;;;;;1.63;1.00;;;19.30;48.40;;;;;;6195624;28;20042;-71
2022/01/16 09:27:01;;;;;;;1.80;0.90;;;19.20;48.40;;;;;;6195024;28;20072;-70
2022/01/16 09:30:04;;;;;;;1.88;1.00;;;19.20;48.40;;;;;;6195648;28;20038;-71
2022/01/16 09:33:05;;;;;;;1.60;0.70;;;19.20;48.40;;;;;;6195479;28;20057;-71
2022/01/16 09:36:08;;;;;;;1.35;0.82;;;19.20;48.40;;;;;;6195708;28;20105;-71
2022/01/16 09:39:09;;;;;;;1.10;0.70;;;19.20;48.50;;;;;;6195844;28;20037;-71
2022/01/16 09:42:10;;;;;;;1.08;0.77;;;19.30;48.60;;;;;;6194989;28;20034;-71
2022/01/16 09:45:15;;;;;;;3.33;0.85;;;19.20;48.50;;;;;;6195808;28;20066;-71
2022/01/16 09:48:16;;;;;;;0.98;0.68;;;19.30;48.60;;;;;;6194880;28;20040;-71
2022/01/16 09:51:16;;;;;;;1.55;0.80;;;19.30;48.70;;;;;;6195526;28;20026;-71
2022/01/16 09:54:19;;;;;;;1.80;1.10;;;19.20;48.60;;;;;;6172735;28;20066;-71
2022/01/16 09:57:20;;;;;;;2.30;1.00;;;19.30;48.70;;;;;;6170564;28;20474;-71
2022/01/16 10:00:23;;;;;;;1.60;0.80;;;19.30;48.70;;;;;;6170973;28;20027;-71
2022/01/16 10:03:42;;;;;;;1.23;0.73;;;19.30;48.70;;;;;;6170795;28;20062;-71
2022/01/16 10:06:55;;;;;;;1.27;0.85;;;19.30;48.70;;;;;;6170994;28;20529;-70
2022/01/16 10:10:15;;;;;;;1.50;0.90;;;19.30;48.70;;;;;;6170224;28;20054;-71
2022/01/16 10:13:24;;;;;;;2.50;0.90;;;19.30;48.70;;;;;;6170750;28;20030;-71
2022/01/16 10:16:31;;;;;;;1.42;0.70;;;19.30;48.70;;;;;;6170436;28;20026;-70
2022/01/16 10:19:32;;;;;;;1.98;0.80;;;19.30;48.70;;;;;;6170588;28;20090;-71
2022/01/16 10:22:46;;;;;;;1.65;0.70;;;19.30;48.70;;;;;;6170699;28;20038;-70
2022/01/16 10:25:48;;;;;;;1.35;0.75;;;19.30;48.70;;;;;;6170264;28;20051;-71
2022/01/16 10:28:50;;;;;;;1.17;0.85;;;19.30;48.70;;;;;;6170378;28;20053;-71
2022/01/16 10:31:50;;;;;;;0.98;0.73;;;19.30;48.70;;;;;;6169955;28;20101;-71
2022/01/16 10:34:53;;;;;;;1.75;1.08;;;19.30;48.70;;;;;;6175454;28;20030;-71
2022/01/16 10:37:57;;;;;;;1.67;1.00;;;19.30;48.70;;;;;;6191831;28;20042;-71
2022/01/16 10:40:59;;;;;;;2.10;0.90;;;19.30;48.70;;;;;;6192112;28;20541;-71
2022/01/16 10:44:00;;;;;;;1.63;1.00;;;19.30;48.70;;;;;;6192360;28;20065;-71
2022/01/16 10:47:24;;;;;;;1.27;0.88;;;19.30;48.70;;;;;;6191779;28;20122;-70
2022/01/16 10:50:38;;;;;;;2.17;0.90;;;19.30;48.70;;;;;;6191992;28;20022;-71
2022/01/16 10:53:40;;;;;;;1.60;0.93;;;19.30;48.70;;;;;;6174186;28;20532;-71
2022/01/16 10:56:41;;;;;;;2.20;0.82;;;19.30;48.70;;;;;;6167922;28;20449;-71
2022/01/16 10:59:41;;;;;;;1.10;0.90;;;19.30;48.70;;;;;;6168539;28;20033;-71
2022/01/16 11:02:45;;;;;;;1.80;0.90;;;19.30;48.70;;;;;;6167357;28;20425;-71
2022/01/16 11:05:46;;;;;;;1.85;0.90;;;19.30;48.80;;;;;;6168126;28;20049;-71
2022/01/16 11:08:57;;;;;;;1.20;1.00;;;19.30;48.70;;;;;;6182761;28;20532;-71
2022/01/16 11:11:59;;;;;;;1.55;0.95;;;19.30;48.70;;;;;;6191181;28;20473;-71
2022/01/16 11:15:03;;;;;;;3.20;1.40;;;19.30;48.80;;;;;;6191785;28;20266;-71
2022/01/16 11:18:04;;;;;;;44.08;3.78;;;19.30;48.90;;;;;;6191366;28;20027;-71
2022/01/16 11:24:28;;;;;;;229.48;24.70;;;19.20;47.00;;;;;;6192267;28;20129;-71
2022/01/16 11:27:29;;;;;;;165.25;20.90;;;19.20;46.20;;;;;;6191547;28;20038;-71
2022/01/16 11:30:33;;;;;;;155.50;18.30;;;19.30;46.70;;;;;;6191416;28;20029;-71
2022/01/16 11:33:34;;;;;;;135.52;17.98;;;19.30;46.50;;;;;;6191642;28;20035;-71
2022/01/16 11:36:35;;;;;;;116.28;17.10;;;19.30;46.50;;;;;;6206157;28;20347;-71
2022/01/16 11:39:37;;;;;;;118.32;17.27;;;19.30;46.80;;;;;;6193041;28;20039;-70
2022/01/16 11:42:37;;;;;;;106.03;14.68;;;19.30;46.90;;;;;;6191461;28;20018;-71
2022/01/16 11:46:07;;;;;;;117.05;15.55;;;19.30;47.00;;;;;;6191365;28;20045;-71
2022/01/16 11:49:13;;;;;;;89.03;14.05;;;19.30;47.20;;;;;;6152652;28;20070;-71
2022/01/16 11:52:18;;;;;;;81.88;13.23;;;19.30;47.30;;;;;;6172565;28;20098;-71
2022/01/16 11:55:33;;;;;;;78.03;15.15;;;19.30;47.40;;;;;;6190803;28;20033;-70
2022/01/16 11:59:12;;;;;;;80.78;12.30;;;19.30;47.50;;;;;;6193909;28;20026;-71
2022/01/16 12:02:12;;;;;;;83.40;12.95;;;19.30;47.70;;;;;;6190477;28;20251;-71
2022/01/16 12:05:25;;;;;;;62.33;11.40;;;19.30;47.80;;;;;;6190510;28;20405;-71
2022/01/16 12:08:35;;;;;;;61.05;11.45;;;19.30;47.80;;;;;;6190413;28;20104;-70
2022/01/16 12:11:37;;;;;;;77.35;11.77;;;19.30;47.80;;;;;;6192062;28;20420;-71
2022/01/16 12:15:00;;;;;;;58.90;11.82;;;19.40;47.90;;;;;;6195080;28;20543;-71
2022/01/16 12:18:01;;;;;;;50.15;10.10;;;19.40;48.00;;;;;;6194935;28;20026;-70
2022/01/16 12:21:30;;;;;;;56.40;10.05;;;19.40;48.00;;;;;;6194871;28;20504;-71
2022/01/16 12:24:36;;;;;;;52.28;9.70;;;19.40;48.10;;;;;;6191205;28;20046;-71
2022/01/16 12:27:37;;;;;;;41.00;9.40;;;19.40;48.00;;;;;;6194516;28;20038;-71
2022/01/16 12:30:51;;;;;;;37.03;9.00;;;19.40;48.10;;;;;;6194339;28;20058;-71
2022/01/16 12:33:55;;;;;;;42.33;8.45;;;19.40;48.10;;;;;;6194566;28;20035;-71
2022/01/16 12:36:56;;;;;;;44.50;9.25;;;19.40;48.10;;;;;;6194765;28;20034;-71
2022/01/16 12:39:57;;;;;;;31.83;8.20;;;19.40;48.20;;;;;;6211249;28;20062;-71
2022/01/16 12:43:00;;;;;;;37.10;8.10;;;19.30;48.20;;;;;;6218395;28;20473;-71
2022/01/16 12:46:02;;;;;;;32.33;7.88;;;19.30;48.20;;;;;;6218994;28;20053;-71
2022/01/16 12:49:13;;;;;;;31.92;6.97;;;19.30;48.20;;;;;;6218496;28;20029;-71
2022/01/16 12:52:14;;;;;;;30.48;7.15;;;19.30;48.20;;;;;;6194758;28;20022;-71
2022/01/16 12:55:15;;;;;;;27.17;7.30;;;19.40;48.30;;;;;;6171403;28;20542;-71
2022/01/16 12:58:22;;;;;;;28.15;7.22;;;19.40;48.40;;;;;;6170372;28;20093;-71
2022/01/16 13:01:23;;;;;;;24.80;6.30;;;19.30;48.20;;;;;;6168588;28;20332;-71
2022/01/16 13:04:39;;;;;;;30.95;6.10;;;19.40;48.40;;;;;;6169905;28;20397;-71
2022/01/16 13:07:42;;;;;;;27.95;6.85;;;19.40;48.30;;;;;;6176506;28;20385;-70
2022/01/16 13:10:43;;;;;;;20.67;6.82;;;19.40;48.30;;;;;;6193968;28;20037;-71
2022/01/16 13:13:43;;;;;;;25.30;6.03;;;19.40;48.30;;;;;;6193510;28;20057;-71
2022/01/16 13:16:47;;;;;;;17.25;5.40;;;19.40;48.30;;;;;;6194251;28;20109;-71
2022/01/16 13:19:53;;;;;;;17.40;5.65;;;19.40;48.40;;;;;;6192833;28;20385;-71
2022/01/16 13:22:56;;;;;;;20.85;6.25;;;19.30;48.20;;;;;;6192433;28;20109;-71
2022/01/16 13:25:56;;;;;;;12.55;4.85;;;19.30;48.30;;;;;;6193020;28;20452;-71
2022/01/16 13:29:04;;;;;;;20.05;5.25;;;19.30;48.30;;;;;;6191753;28;20109;-71
2022/01/16 13:32:07;;;;;;;12.75;5.00;;;19.30;48.30;;;;;;6193202;28;20396;-71
2022/01/16 13:35:40;;;;;;;19.67;5.35;;;19.30;48.30;;;;;;6193530;28;20023;-71
2022/01/16 13:38:46;;;;;;;19.60;5.65;;;19.30;48.30;;;;;;6167399;28;20038;-71
2022/01/16 13:42:10;;;;;;;14.93;5.15;;;19.40;48.30;;;;;;6216851;28;20034;-71
2022/01/16 13:45:21;;;;;;;15.45;5.00;;;19.30;48.30;;;;;;6217222;28;20034;-71
2022/01/16 13:48:23;;;;;;;14.20;5.30;;;19.30;49.00;;;;;;6217196;28;20097;-71
2022/01/16 13:51:30;;;;;;;14.90;4.75;;;19.30;48.20;;;;;;6216935;28;20470;-71
2022/01/16 13:54:32;;;;;;;11.25;4.45;;;19.40;48.50;;;;;;6168412;28;20034;-71
2022/01/16 13:57:33;;;;;;;10.60;4.22;;;19.40;48.50;;;;;;6168846;28;20085;-71
2022/01/16 14:00:34;;;;;;;19.67;4.82;;;19.40;48.40;;;;;;6168321;28;20446;-71
2022/01/16 14:03:45;;;;;;;10.70;4.43;;;19.40;48.30;;;;;;6168163;28;20078;-71
2022/01/16 14:06:56;;;;;;;10.15;4.53;;;19.40;48.30;;;;;;6175441;28;20045;-70
2022/01/16 14:09:56;;;;;;;16.23;4.40;;;19.40;48.30;;;;;;6167986;28;20050;-71
2022/01/16 14:12:57;;;;;;;10.40;4.45;;;19.40;48.40;;;;;;6168250;28;20458;-71
2022/01/16 14:16:02;;;;;;;9.35;4.28;;;19.40;48.30;;;;;;6168524;28;20503;-71
2022/01/16 14:22:10;;;;;;;10.07;3.88;;;19.40;48.30;;;;;;6168562;28;19964;-70
2022/01/16 14:25:10;;;;;;;10.23;4.15;;;19.40;48.30;;;;;;6188729;28;20036;-71
2022/01/16 14:28:11;;;;;;;9.25;3.58;;;19.40;48.30;;;;;;6190187;28;20038;-71
2022/01/16 14:31:12;;;;;;;9.32;4.13;;;19.30;48.20;;;;;;6191878;28;20445;-71
2022/01/16 14:34:13;;;;;;;8.60;3.95;;;19.40;48.20;;;;;;6191694;28;20105;-71
2022/01/16 14:37:15;;;;;;;9.07;3.70;;;19.40;48.30;;;;;;6190758;28;20089;-71
2022/01/16 14:40:16;;;;;;;9.70;3.70;;;19.40;48.30;;;;;;6210972;28;20072;-71
2022/01/16 14:43:21;;;;;;;9.50;3.13;;;19.40;48.20;;;;;;6215453;28;20025;-71
2022/01/16 14:46:22;;;;;;;10.77;4.10;;;19.40;48.20;;;;;;6215810;28;20487;-70
2022/01/16 14:49:23;;;;;;;10.73;3.72;;;19.40;48.40;;;;;;6215643;28;20131;-70
2022/01/16 14:52:24;;;;;;;16.30;4.18;;;19.40;48.40;;;;;;6200640;28;20034;-71
2022/01/16 14:55:25;;;;;;;36.28;4.20;;;19.50;48.60;;;;;;6171602;28;20022;-71
2022/01/16 14:58:25;;;;;;;94.50;7.43;;;19.60;48.30;;;;;;6190815;28;20497;-70
2022/01/16 15:01:26;;;;;;;55.30;5.60;;;19.60;48.50;;;;;;6191245;28;20026;-71
2022/01/16 15:04:26;;;;;;;60.17;4.85;;;19.60;48.50;;;;;;6190591;28;20121;-72
2022/01/16 15:07:27;;;;;;;25.00;4.35;;;19.60;48.50;;;;;;6190660;28;20381;-72
2022/01/16 15:10:31;;;;;;;33.20;4.50;;;19.50;48.40;;;;;;6190611;28;20145;-72
2022/01/16 15:13:34;;;;;;;23.38;4.55;;;19.50;48.50;;;;;;6190680;28;20476;-72
2022/01/16 15:16:36;;;;;;;26.85;4.30;;;19.50;48.50;;;;;;6191032;28;20304;-72
2022/01/16 15:19:37;;;;;;;36.00;4.63;;;19.50;48.50;;;;;;6191048;28;20428;-72
2022/01/16 15:22:38;;;;;;;18.95;4.57;;;19.40;48.50;;;;;;6205513;28;20081;-72
2022/01/16 15:25:38;;;;;;;11.38;3.30;;;19.50;48.60;;;;;;6190007;28;20034;-72
2022/01/16 15:28:39;;;;;;;14.52;3.67;;;19.40;48.40;;;;;;6190664;28;20031;-73
2022/01/16 15:31:40;;;;;;;17.88;3.97;;;19.40;48.50;;;;;;6190357;28;20034;-71
2022/01/16 15:34:40;;;;;;;15.55;3.20;;;19.40;48.50;;;;;;6190566;28;20025;-71
2022/01/16 15:37:43;;;;;;;10.93;3.22;;;19.40;48.50;;;;;;6190184;28;20425;-71
2022/01/16 15:40:44;;;;;;;13.18;3.40;;;19.40;48.50;;;;;;6213659;28;20029;-72
2022/01/16 15:43:45;;;;;;;11.43;3.53;;;19.50;48.60;;;;;;6214157;28;20408;-72
2022/01/16 15:46:45;;;;;;;12.00;3.40;;;19.40;48.50;;;;;;6215818;28;20121;-72
2022/01/16 15:49:46;;;;;;;12.02;3.58;;;19.40;48.50;;;;;;6219154;28;20144;-72
2022/01/16 15:52:48;;;;;;;19.73;4.10;;;19.40;48.50;;;;;;6208382;28;20057;-72
2022/01/16 15:55:50;;;;;;;10.20;3.33;;;19.40;48.50;;;;;;6194639;28;20034;-72
2022/01/16 15:58:50;;;;;;;12.90;3.10;;;19.40;48.50;;;;;;6194486;28;20117;-71
2022/01/16 16:01:51;;;;;;;8.63;3.00;;;19.40;48.50;;;;;;6194238;28;20080;-71
2022/01/16 16:04:52;;;;;;;10.43;3.33;;;19.40;49.20;;;;;;6195020;28;20042;-72
2022/01/16 16:07:53;;;;;;;16.17;3.17;;;19.50;49.70;;;;;;6194280;28;20439;-71
2022/01/16 16:10:55;;;;;;;10.25;3.45;;;19.40;48.80;;;;;;6194259;28;20113;-71
2022/01/16 16:13:55;;;;;;;14.88;2.97;;;19.40;48.70;;;;;;6194878;28;20026;-71
2022/01/16 16:16:56;;;;;;;8.05;2.40;;;19.50;48.80;;;;;;6194738;28;20372;-71
2022/01/16 16:19:57;;;;;;;8.40;2.95;;;19.40;48.80;;;;;;6193857;28;20030;-71
2022/01/16 16:23:00;;;;;;;15.32;2.72;;;19.40;49.00;;;;;;6193615;28;20551;-71
2022/01/16 16:26:00;;;;;;;8.70;2.42;;;19.40;48.80;;;;;;6192947;28;20037;-71
2022/01/16 16:29:03;;;;;;;12.45;2.45;;;19.40;49.10;;;;;;6193491;28;20038;-72
2022/01/16 16:32:05;;;;;;;8.32;2.55;;;19.40;48.90;;;;;;6192687;28;20485;-71